Time;durP1;ratioP1;P1;durP2;ratioP2;P2;SDS_P1;SDS_P2;PMS_P1;PMS_P2;Temp;Humidity;BMP_temperature;BMP_pressure;BME280_temperature;BME280_humidity;BME280_pressure;Samples;Min_cycle;Max_cycle;Signal;HPM_P1;HPM_P2
2023/05/06 00:00:50;;;;;;;;;;;;;;;19.35;48.13;101080.44;103305;1294;61500;-84
2023/05/06 00:03:23;;;;;;;;;;;;;;;19.35;48.14;101078.84;103409;1292;61846;-82
2023/05/06 00:05:49;;;;;;;;;;;;;;;19.35;48.06;101081.52;103116;1293;62239;-83
2023/05/06 00:08:15;;;;;;;;;;;;;;;19.34;48.17;101082.06;103393;1285;61404;-83
2023/05/06 00:10:41;;;;;;;;;;;;;;;19.34;48.10;101086.00;103614;1285;61446;-83
2023/05/06 00:13:07;;;;;;;;;;;;;;;19.35;48.23;101085.43;103530;1286;61430;-84
2023/05/06 00:15:35;;;;;;;;;;;;;;;19.34;48.23;101080.31;103400;1291;61478;-82
2023/05/06 00:18:01;;;;;;;;;;;;;;;19.34;48.05;101079.42;103568;1291;61312;-83
2023/05/06 00:20:27;;;;;;;;;;;;;;;19.34;48.17;101080.67;103604;1285;62522;-83
2023/05/06 00:22:56;;;;;;;;;;;;;;;19.33;48.12;101078.02;103307;1286;61401;-83
2023/05/06 00:25:30;;;;;;;;;;;;;;;19.34;48.09;101078.91;103306;1288;62513;-83
2023/05/06 00:27:59;;;;;;;;;;;;;;;19.33;48.10;101076.95;103330;1289;74772;-83
2023/05/06 00:30:24;;;;;;;;;;;;;;;19.34;48.27;101075.16;103324;1288;61436;-83
2023/05/06 00:32:58;;;;;;;;;;;;;;;19.33;48.13;101076.61;103123;1293;61347;-83
2023/05/06 00:35:28;;;;;;;;;;;;;;;19.33;48.15;101071.99;103042;1293;62920;-83
2023/05/06 00:37:59;;;;;;;;;;;;;;;19.33;48.15;101073.39;103163;1293;74365;-83
2023/05/06 00:40:27;;;;;;;;;;;;;;;19.33;48.00;101069.83;103106;1294;62476;-83
2023/05/06 00:43:02;;;;;;;;;;;;;;;19.33;48.15;101070.00;103408;1292;61407;-83
2023/05/06 00:45:27;;;;;;;;;;;;;;;19.33;48.23;101067.71;103453;1292;72535;-83
2023/05/06 00:47:53;;;;;;;;;;;;;;;19.33;48.13;101069.10;103093;1288;61584;-84
2023/05/06 00:50:19;;;;;;;;;;;;;;;19.32;48.06;101065.05;103177;1288;61366;-83
2023/05/06 00:52:45;;;;;;;;;;;;;;;19.32;48.34;101067.73;103132;1289;62349;-83
2023/05/06 00:55:10;;;;;;;;;;;;;;;19.32;48.16;101068.80;103045;1288;61402;-83
2023/05/06 00:57:36;;;;;;;;;;;;;;;19.32;48.20;101064.33;103614;1287;61375;-83
2023/05/06 01:00:02;;;;;;;;;;;;;;;19.33;48.11;101066.99;103507;1291;74396;-84
2023/05/06 01:02:28;;;;;;;;;;;;;;;19.32;48.18;101065.77;103529;1285;61406;-83
2023/05/06 01:05:02;;;;;;;;;;;;;;;19.32;48.17;101064.91;103491;1285;61491;-83
2023/05/06 01:07:56;;;;;;;;;;;;;;;19.32;48.29;101067.23;103591;1290;73545;-83
2023/05/06 01:10:33;;;;;;;;;;;;;;;19.32;48.23;101061.35;103580;1291;74269;-83
2023/05/06 01:13:06;;;;;;;;;;;;;;;19.32;48.03;101061.70;103672;1289;61334;-82
2023/05/06 01:15:33;;;;;;;;;;;;;;;19.32;48.22;101058.31;103712;1290;61312;-83
2023/05/06 01:18:00;;;;;;;;;;;;;;;19.32;48.15;101060.45;103894;1285;72564;-82
2023/05/06 01:20:25;;;;;;;;;;;;;;;19.32;48.21;101054.37;104800;1285;75388;-82
2023/05/06 01:22:51;;;;;;;;;;;;;;;19.33;48.32;101056.83;103957;1285;62933;-82
2023/05/06 01:25:21;;;;;;;;;;;;;;;19.32;48.13;101050.77;103747;1285;61624;-82
2023/05/06 01:27:46;;;;;;;;;;;;;;;19.33;48.15;101051.27;104157;1285;73630;-83
2023/05/06 01:30:12;;;;;;;;;;;;;;;19.33;48.15;101050.92;103654;1285;61442;-83
2023/05/06 01:32:40;;;;;;;;;;;;;;;19.33;48.15;101046.63;103598;1285;61484;-83
2023/05/06 01:35:41;;;;;;;;;;;;;;;19.33;48.22;101046.44;103717;1285;62524;-84
2023/05/06 01:38:39;;;;;;;;;;;;;;;19.33;48.24;101042.88;103330;1292;73547;-82
2023/05/06 01:41:05;;;;;;;;;;;;;;;19.33;48.10;101041.29;102980;1299;74606;-81
2023/05/06 01:43:34;;;;;;;;;;;;;;;19.34;48.14;101045.16;103136;1297;61470;-81
2023/05/06 01:45:59;;;;;;;;;;;;;;;19.34;48.20;101046.40;102958;1302;61897;-81
2023/05/06 01:48:25;;;;;;;;;;;;;;;19.34;48.15;101048.36;102958;1297;61497;-81
2023/05/06 01:50:51;;;;;;;;;;;;;;;19.34;48.15;101044.43;102921;1297;63022;-81
2023/05/06 01:53:16;;;;;;;;;;;;;;;19.34;48.18;101043.52;102696;1297;61360;-84
2023/05/06 01:55:42;;;;;;;;;;;;;;;19.34;48.09;101044.63;102679;1297;62653;-84
2023/05/06 01:58:07;;;;;;;;;;;;;;;19.34;48.14;101045.69;102603;1297;61316;-83
2023/05/06 02:00:33;;;;;;;;;;;;;;;19.34;48.06;101047.82;102625;1297;61457;-82
2023/05/06 02:03:01;;;;;;;;;;;;;;;19.34;48.16;101046.59;102560;1301;74630;-83
2023/05/06 02:05:28;;;;;;;;;;;;;;;19.33;48.07;101046.25;102636;1297;61440;-82
2023/05/06 02:07:54;;;;;;;;;;;;;;;19.33;48.11;101043.59;102593;1297;61410;-82
2023/05/06 02:10:25;;;;;;;;;;;;;;;19.33;48.06;101045.40;102615;1303;61610;-82
2023/05/06 02:12:50;;;;;;;;;;;;;;;19.33;48.05;101042.19;102834;1297;74684;-83
2023/05/06 02:15:22;;;;;;;;;;;;;;;19.33;47.89;101043.79;103074;1291;61317;-83
2023/05/06 02:17:48;;;;;;;;;;;;;;;19.32;47.99;101042.20;103379;1285;61318;-83
2023/05/06 02:20:13;;;;;;;;;;;;;;;19.32;47.96;101041.88;103609;1289;62454;-83
2023/05/06 02:22:39;;;;;;;;;;;;;;;19.32;48.04;101037.98;103611;1291;61443;-83
2023/05/06 02:25:17;;;;;;;;;;;;;;;19.31;47.93;101035.16;103612;1285;61493;-83
2023/05/06 02:27:43;;;;;;;;;;;;;;;19.31;47.91;101036.59;103668;1285;61310;-83
2023/05/06 02:30:10;;;;;;;;;;;;;;;19.30;47.93;101039.12;103571;1285;71998;-83
2023/05/06 02:32:39;;;;;;;;;;;;;;;19.30;47.86;101036.61;103657;1285;61763;-83
2023/05/06 02:35:08;;;;;;;;;;;;;;;19.31;47.81;101032.34;103495;1285;61393;-82
2023/05/06 02:37:34;;;;;;;;;;;;;;;19.31;47.87;101031.80;103501;1288;61475;-84
2023/05/06 02:40:08;;;;;;;;;;;;;;;19.30;47.80;101036.63;103537;1285;61471;-82
2023/05/06 02:42:34;;;;;;;;;;;;;;;19.30;47.87;101034.48;103515;1285;75215;-84
2023/05/06 02:45:00;;;;;;;;;;;;;;;19.30;48.03;101033.83;103428;1288;61308;-83
2023/05/06 02:47:26;;;;;;;;;;;;;;;19.29;47.90;101032.77;103499;1287;62288;-83
2023/05/06 02:49:54;;;;;;;;;;;;;;;19.30;47.88;101032.03;103628;1285;73757;-83
2023/05/06 02:52:22;;;;;;;;;;;;;;;19.29;47.85;101031.68;103563;1285;61408;-83
2023/05/06 02:54:50;;;;;;;;;;;;;;;19.29;47.86;101032.06;103549;1286;61347;-81
2023/05/06 02:57:16;;;;;;;;;;;;;;;19.29;47.93;101030.81;103306;1285;61418;-84
2023/05/06 02:59:44;;;;;;;;;;;;;;;19.29;47.73;101035.99;103574;1285;62506;-83
2023/05/06 03:02:11;;;;;;;;;;;;;;;19.29;47.91;101034.06;103603;1292;74369;-83
2023/05/06 03:04:36;;;;;;;;;;;;;;;19.28;47.72;101032.64;103596;1291;62554;-84
2023/05/06 03:07:05;;;;;;;;;;;;;;;19.29;47.74;101036.02;103484;1285;61436;-83
2023/05/06 03:09:40;;;;;;;;;;;;;;;19.28;47.77;101039.60;103353;1287;72526;-83
2023/05/06 03:12:12;;;;;;;;;;;;;;;19.28;47.86;101039.83;103602;1285;61395;-83
2023/05/06 03:14:41;;;;;;;;;;;;;;;19.28;47.80;101042.48;103678;1289;61270;-83
2023/05/06 03:17:06;;;;;;;;;;;;;;;19.28;47.85;101043.88;103616;1289;61992;-83
2023/05/06 03:19:35;;;;;;;;;;;;;;;19.28;47.78;101041.94;103608;1285;61410;-83
2023/05/06 03:22:01;;;;;;;;;;;;;;;19.28;47.81;101042.13;103555;1292;74608;-83
2023/05/06 03:24:26;;;;;;;;;;;;;;;19.28;47.69;101048.52;103592;1285;62509;-83
2023/05/06 03:26:55;;;;;;;;;;;;;;;19.28;47.81;101049.95;103623;1285;61397;-83
2023/05/06 03:29:21;;;;;;;;;;;;;;;19.28;47.74;101050.86;103485;1291;73667;-82
2023/05/06 03:31:48;;;;;;;;;;;;;;;19.29;47.65;101051.37;103549;1285;61488;-83
2023/05/06 03:34:13;;;;;;;;;;;;;;;19.28;47.63;101050.30;103601;1285;61283;-84
2023/05/06 03:36:39;;;;;;;;;;;;;;;19.28;47.75;101054.95;103682;1285;61414;-83
2023/05/06 03:39:05;;;;;;;;;;;;;;;19.28;47.76;101058.02;103523;1285;61763;-82
2023/05/06 03:41:33;;;;;;;;;;;;;;;19.29;47.63;101062.42;103511;1285;61494;-83
2023/05/06 03:44:01;;;;;;;;;;;;;;;19.29;47.69;101061.19;103548;1291;61394;-83
2023/05/06 03:46:31;;;;;;;;;;;;;;;19.29;47.63;101063.33;103528;1285;61398;-83
2023/05/06 03:48:59;;;;;;;;;;;;;;;19.29;47.62;101067.75;103552;1285;73395;-82
2023/05/06 03:51:34;;;;;;;;;;;;;;;19.29;47.76;101071.33;103491;1286;75601;-83
2023/05/06 03:54:00;;;;;;;;;;;;;;;19.29;47.63;101072.58;103640;1285;62531;-84
2023/05/06 03:56:26;;;;;;;;;;;;;;;19.29;47.63;101075.42;103541;1291;61401;-83
2023/05/06 03:58:54;;;;;;;;;;;;;;;19.29;47.63;101076.14;103549;1285;62575;-83
2023/05/06 04:01:22;;;;;;;;;;;;;;;19.29;47.63;101079.54;103628;1285;74948;-84
2023/05/06 04:03:48;;;;;;;;;;;;;;;19.29;47.50;101080.77;103591;1285;61305;-82
2023/05/06 04:06:14;;;;;;;;;;;;;;;19.30;47.53;101085.22;103657;1286;61381;-83
2023/05/06 04:08:41;;;;;;;;;;;;;;;19.29;47.56;101084.50;103668;1285;61423;-83
2023/05/06 04:11:13;;;;;;;;;;;;;;;19.30;47.68;101090.91;103452;1285;74511;-83
2023/05/06 04:13:39;;;;;;;;;;;;;;;19.30;47.69;101089.80;103672;1285;61333;-83
2023/05/06 04:16:08;;;;;;;;;;;;;;;19.30;47.57;101089.66;103624;1285;61471;-83
2023/05/06 04:18:34;;;;;;;;;;;;;;;19.30;47.62;101094.45;103509;1290;73414;-83
2023/05/06 04:21:02;;;;;;;;;;;;;;;19.30;47.50;101093.93;103335;1293;61408;-83
2023/05/06 04:23:31;;;;;;;;;;;;;;;19.30;47.50;101097.66;103595;1285;61385;-83
2023/05/06 04:26:05;;;;;;;;;;;;;;;19.30;47.53;101103.89;103560;1285;61402;-83
2023/05/06 04:28:38;;;;;;;;;;;;;;;19.30;47.46;101107.83;103529;1289;73481;-83
2023/05/06 04:31:07;;;;;;;;;;;;;;;19.31;47.49;101114.05;103491;1285;75627;-82
2023/05/06 04:33:38;;;;;;;;;;;;;;;19.31;47.48;101113.85;103539;1285;61324;-82
2023/05/06 04:36:07;;;;;;;;;;;;;;;19.31;47.54;101119.91;103486;1292;61305;-83
2023/05/06 04:38:35;;;;;;;;;;;;;;;19.32;47.57;101115.80;103433;1285;73615;-83
2023/05/06 04:41:04;;;;;;;;;;;;;;;19.32;47.42;101119.69;103711;1285;74017;-83
2023/05/06 04:43:32;;;;;;;;;;;;;;;19.32;47.32;101121.13;103551;1292;61436;-83
2023/05/06 04:45:57;;;;;;;;;;;;;;;19.32;47.36;101122.18;103540;1285;61369;-83
2023/05/06 04:48:40;;;;;;;;;;;;;;;19.33;47.44;101121.61;103536;1286;73327;-82
2023/05/06 04:51:08;;;;;;;;;;;;;;;19.33;47.43;101126.39;103603;1286;74541;-83
2023/05/06 04:53:41;;;;;;;;;;;;;;;19.33;47.38;101123.91;103547;1285;61294;-83
2023/05/06 04:56:09;;;;;;;;;;;;;;;19.34;47.26;101126.91;103769;1284;61267;-82
2023/05/06 04:58:38;;;;;;;;;;;;;;;19.34;47.27;101125.09;103771;1284;72424;-83
2023/05/06 05:01:19;;;;;;;;;;;;;;;;;;;;;
2023/05/06 05:03:44;;;;;;;;;;;;;;;19.35;47.34;101128.77;103534;1285;61345;-82
2023/05/06 05:06:12;;;;;;;;;;;;;;;19.36;47.37;101131.61;103699;1285;61272;-83
2023/05/06 05:08:38;;;;;;;;;;;;;;;19.36;47.21;101130.84;104111;1285;61420;-82
2023/05/06 05:11:07;;;;;;;;;;;;;;;19.37;47.16;101128.67;103932;1285;61407;-82
2023/05/06 05:13:33;;;;;;;;;;;;;;;19.38;47.31;101127.54;103963;1285;61356;-82
2023/05/06 05:15:59;;;;;;;;;;;;;;;19.40;47.16;101126.73;104110;1285;61380;-82
2023/05/06 05:18:27;;;;;;;;;;;;;;;19.41;47.23;101128.78;104124;1285;61404;-82
2023/05/06 05:20:53;;;;;;;;;;;;;;;19.42;47.11;101129.59;103721;1285;74539;-83
2023/05/06 05:23:22;;;;;;;;;;;;;;;19.45;47.03;101131.98;103539;1286;61516;-83
2023/05/06 05:25:47;;;;;;;;;;;;;;;19.46;47.04;101132.27;103713;1285;61423;-83
2023/05/06 05:28:15;;;;;;;;;;;;;;;19.47;47.13;101135.92;103508;1285;61414;-83
2023/05/06 05:30:43;;;;;;;;;;;;;;;19.48;47.13;101134.09;103622;1291;74403;-84
2023/05/06 05:33:12;;;;;;;;;;;;;;;19.50;47.04;101134.88;103604;1288;61369;-83
2023/05/06 05:35:37;;;;;;;;;;;;;;;19.51;47.07;101134.84;103702;1288;62557;-83
2023/05/06 05:38:15;;;;;;;;;;;;;;;19.52;46.95;101141.02;103678;1288;73301;-82
2023/05/06 05:40:41;;;;;;;;;;;;;;;19.53;46.96;101143.42;103585;1284;74551;-83
2023/05/06 05:43:06;;;;;;;;;;;;;;;19.54;46.95;101142.29;103668;1288;61301;-83
2023/05/06 05:45:35;;;;;;;;;;;;;;;19.55;46.98;101149.91;103548;1285;61379;-83
2023/05/06 05:48:03;;;;;;;;;;;;;;;19.57;47.00;101148.20;103714;1285;73507;-83
2023/05/06 05:50:37;;;;;;;;;;;;;;;19.57;46.80;101143.52;103617;1284;74495;-82
2023/05/06 05:53:05;;;;;;;;;;;;;;;19.59;46.83;101145.95;103619;1284;61398;-83
2023/05/06 05:55:30;;;;;;;;;;;;;;;19.59;46.93;101148.77;103627;1284;61372;-84
2023/05/06 05:57:56;;;;;;;;;;;;;;;19.59;47.00;101154.63;103579;1285;62569;-83
2023/05/06 06:00:22;;;;;;;;;;;;;;;19.60;46.92;101150.31;103590;1286;61347;-82
2023/05/06 06:02:50;;;;;;;;;;;;;;;19.62;46.75;101155.08;103672;1285;61410;-83
2023/05/06 06:05:16;;;;;;;;;;;;;;;19.62;46.83;101158.42;103531;1285;61420;-84
2023/05/06 06:07:51;;;;;;;;;;;;;;;19.63;46.84;101160.88;103691;1288;72290;-83
2023/05/06 06:10:22;;;;;;;;;;;;;;;19.63;46.69;101158.17;103598;1291;75428;-83
2023/05/06 06:12:50;;;;;;;;;;;;;;;19.64;46.95;101159.93;103673;1285;61297;-82
2023/05/06 06:15:16;;;;;;;;;;;;;;;19.65;46.83;101161.31;103494;1286;61246;-83
2023/05/06 06:17:42;;;;;;;;;;;;;;;19.66;46.77;101158.94;103324;1288;61493;-83
2023/05/06 06:20:11;;;;;;;;;;;;;;;19.66;46.75;101158.89;103062;1293;73511;-84
2023/05/06 06:22:36;;;;;;;;;;;;;;;19.67;46.74;101159.23;103084;1290;61590;-84
2023/05/06 06:25:05;;;;;;;;;;;;;;;19.67;46.65;101159.75;103067;1288;62160;-83
2023/05/06 06:27:35;;;;;;;;;;;;;;;19.68;46.83;101157.77;103122;1288;72506;-82
2023/05/06 06:30:13;;;;;;;;;;;;;;;19.68;46.75;101160.94;103057;1288;74477;-82
2023/05/06 06:32:53;;;;;;;;;;;;;;;19.68;46.66;101160.59;103278;1292;61419;-83
2023/05/06 06:35:19;;;;;;;;;;;;;;;19.69;46.54;101162.30;103396;1288;61429;-83
2023/05/06 06:37:50;;;;;;;;;;;;;;;19.69;46.66;101168.90;103168;1291;72609;-83
2023/05/06 06:40:16;;;;;;;;;;;;;;;19.70;46.69;101167.60;103084;1291;74323;-83
2023/05/06 06:42:45;;;;;;;;;;;;;;;19.71;46.64;101165.80;103122;1291;62176;-83
2023/05/06 06:45:12;;;;;;;;;;;;;;;19.71;46.74;101167.19;103058;1291;62415;-82
2023/05/06 06:47:37;;;;;;;;;;;;;;;19.71;46.71;101172.39;103096;1291;62288;-83
2023/05/06 06:50:04;;;;;;;;;;;;;;;19.71;46.69;101173.42;103415;1285;61334;-84
2023/05/06 06:52:30;;;;;;;;;;;;;;;19.72;46.68;101169.30;103777;1285;62500;-83
2023/05/06 06:54:56;;;;;;;;;;;;;;;19.72;46.76;101170.88;103501;1285;61458;-83
2023/05/06 06:57:21;;;;;;;;;;;;;;;19.72;46.63;101169.61;103436;1285;62471;-83
2023/05/06 06:59:51;;;;;;;;;;;;;;;19.73;46.64;101167.27;103528;1293;61410;-82
2023/05/06 07:02:17;;;;;;;;;;;;;;;19.72;46.63;101169.41;103504;1285;62098;-83
2023/05/06 07:04:43;;;;;;;;;;;;;;;19.73;46.65;101172.45;103294;1291;61531;-83
2023/05/06 07:07:09;;;;;;;;;;;;;;;19.73;46.59;101175.46;103042;1285;647351;-83
2023/05/06 07:09:34;;;;;;;;;;;;;;;19.73;46.69;101180.09;103592;1285;61430;-84
2023/05/06 07:12:00;;;;;;;;;;;;;;;19.74;46.53;101181.85;103474;1291;61469;-83
2023/05/06 07:14:26;;;;;;;;;;;;;;;19.73;46.57;101178.83;103648;1285;61331;-83
2023/05/06 07:16:52;;;;;;;;;;;;;;;19.73;46.54;101179.90;103635;1285;61423;-83
2023/05/06 07:19:30;;;;;;;;;;;;;;;19.73;46.65;101185.27;103540;1285;73509;-82
2023/05/06 07:21:56;;;;;;;;;;;;;;;19.74;46.60;101188.64;103728;1285;74510;-83
2023/05/06 07:24:22;;;;;;;;;;;;;;;19.74;46.68;101188.29;103649;1289;61510;-83
2023/05/06 07:26:47;;;;;;;;;;;;;;;19.74;46.60;101186.86;103547;1285;61210;-82
2023/05/06 07:29:13;;;;;;;;;;;;;;;19.74;46.54;101193.62;103466;1285;61472;-84
2023/05/06 07:31:41;;;;;;;;;;;;;;;19.74;46.55;101193.46;103582;1287;61360;-82
2023/05/06 07:34:06;;;;;;;;;;;;;;;19.74;46.52;101196.14;103409;1285;61302;-84
2023/05/06 07:36:38;;;;;;;;;;;;;;;19.74;46.46;101200.04;103644;1285;61326;-82
2023/05/06 07:39:05;;;;;;;;;;;;;;;19.74;46.55;101197.00;103525;1291;73803;-83
2023/05/06 07:41:30;;;;;;;;;;;;;;;19.74;46.56;101199.31;103652;1285;61279;-83
2023/05/06 07:43:56;;;;;;;;;;;;;;;19.74;46.58;101204.31;103567;1285;61377;-83
2023/05/06 07:46:28;;;;;;;;;;;;;;;19.74;46.52;101206.48;103632;1285;61443;-83
2023/05/06 07:48:53;;;;;;;;;;;;;;;19.74;46.62;101204.52;103462;1285;73612;-84
2023/05/06 07:51:19;;;;;;;;;;;;;;;19.74;46.56;101214.86;103478;1285;61480;-83
2023/05/06 07:53:48;;;;;;;;;;;;;;;19.74;46.55;101213.81;103564;1285;61409;-83
2023/05/06 07:56:13;;;;;;;;;;;;;;;19.74;46.60;101210.40;103498;1288;61632;-84
2023/05/06 07:58:50;;;;;;;;;;;;;;;19.74;46.57;101216.11;103304;1288;72303;-84
2023/05/06 08:01:16;;;;;;;;;;;;;;;19.74;46.50;101213.95;103100;1288;75297;-82
2023/05/06 08:03:44;;;;;;;;;;;;;;;19.74;46.49;101214.52;103090;1291;61589;-83
2023/05/06 08:06:09;;;;;;;;;;;;;;;19.74;46.44;101211.84;103293;1288;61386;-83
2023/05/06 08:08:38;;;;;;;;;;;;;;;19.74;46.50;101217.91;103344;1288;61514;-83
2023/05/06 08:11:03;;;;;;;;;;;;;;;19.74;46.57;101218.81;103448;1288;73766;-83
2023/05/06 08:13:32;;;;;;;;;;;;;;;19.73;46.47;101222.05;103118;1288;61477;-83
2023/05/06 08:15:57;;;;;;;;;;;;;;;19.74;46.42;101220.77;103306;1291;61303;-83
2023/05/06 08:18:26;;;;;;;;;;;;;;;19.74;46.53;101217.21;103379;1288;72483;-82
2023/05/06 08:20:54;;;;;;;;;;;;;;;19.74;46.57;101215.60;103148;1294;61344;-83
2023/05/06 08:23:20;;;;;;;;;;;;;;;19.74;46.37;101218.64;103311;1294;61291;-82
2023/05/06 08:25:45;;;;;;;;;;;;;;;19.74;46.45;101217.37;103365;1288;61433;-83
2023/05/06 08:28:11;;;;;;;;;;;;;;;19.74;46.44;101218.63;103182;1288;62402;-82
2023/05/06 08:30:39;;;;;;;;;;;;;;;19.74;46.37;101221.11;103493;1285;74258;-83
2023/05/06 08:33:05;;;;;;;;;;;;;;;19.74;46.50;101212.55;103470;1285;61452;-83
2023/05/06 08:35:31;;;;;;;;;;;;;;;19.75;46.46;101217.88;103470;1285;61513;-83
2023/05/06 08:38:06;;;;;;;;;;;;;;;19.74;46.51;101216.46;103579;1289;61269;-83
2023/05/06 08:40:34;;;;;;;;;;;;;;;19.74;46.36;101220.59;103511;1285;75233;-83
2023/05/06 08:43:03;;;;;;;;;;;;;;;19.74;46.39;101221.63;103510;1285;61328;-82
2023/05/06 08:45:28;;;;;;;;;;;;;;;19.74;46.51;101232.02;103511;1291;61923;-82
2023/05/06 08:48:12;;;;;;;;;;;;;;;19.75;46.45;101226.79;103595;1289;73500;-83
2023/05/06 08:50:40;;;;;;;;;;;;;;;19.74;46.26;101222.34;103447;1285;61470;-82
2023/05/06 08:53:08;;;;;;;;;;;;;;;19.75;46.42;101217.66;103471;1285;62315;-83
2023/05/06 08:55:35;;;;;;;;;;;;;;;19.75;46.36;101217.49;103508;1288;61398;-83
2023/05/06 08:58:09;;;;;;;;;;;;;;;19.74;46.36;101232.16;103682;1285;72411;-83
2023/05/06 09:00:36;;;;;;;;;;;;;;;19.75;46.46;101220.71;103472;1290;74617;-84
2023/05/06 09:03:02;;;;;;;;;;;;;;;19.75;46.54;101224.29;103420;1286;62462;-83
2023/05/06 09:05:31;;;;;;;;;;;;;;;19.75;46.37;101226.25;103305;1288;61384;-83
2023/05/06 09:08:00;;;;;;;;;;;;;;;19.75;46.32;101220.73;103119;1288;73357;-83
2023/05/06 09:10:34;;;;;;;;;;;;;;;19.74;46.27;101228.59;103328;1292;74516;-83
2023/05/06 09:13:00;;;;;;;;;;;;;;;19.75;46.32;101230.02;103089;1288;61481;-83
2023/05/06 09:15:30;;;;;;;;;;;;;;;19.75;46.44;101227.67;103059;1289;63145;-83
2023/05/06 09:18:04;;;;;;;;;;;;;;;19.75;46.36;101229.65;103094;1288;72189;-82
2023/05/06 09:20:32;;;;;;;;;;;;;;;19.75;46.33;101229.11;103087;1288;75433;-84
2023/05/06 09:22:57;;;;;;;;;;;;;;;19.74;46.31;101221.64;103378;1288;62439;-83
2023/05/06 09:25:23;;;;;;;;;;;;;;;19.74;46.26;101222.73;103084;1288;61415;-83
2023/05/06 09:27:49;;;;;;;;;;;;;;;19.74;46.26;101216.30;103320;1288;61312;-83
2023/05/06 09:30:15;;;;;;;;;;;;;;;19.73;46.24;101215.26;103055;1288;61431;-83
2023/05/06 09:32:48;;;;;;;;;;;;;;;19.73;46.33;101221.70;103141;1288;61393;-83
2023/05/06 09:35:16;;;;;;;;;;;;;;;19.73;46.19;101217.42;103081;1288;61408;-83
2023/05/06 09:37:42;;;;;;;;;;;;;;;19.73;46.10;101220.83;103431;1290;72534;-82
2023/05/06 09:40:08;;;;;;;;;;;;;;;19.72;46.16;101216.41;103458;1285;61395;-82
2023/05/06 09:42:34;;;;;;;;;;;;;;;19.72;46.22;101211.08;103544;1290;62749;-82
2023/05/06 09:45:00;;;;;;;;;;;;;;;19.71;46.26;101209.67;103513;1285;61422;-83
2023/05/06 09:47:26;;;;;;;;;;;;;;;19.72;46.16;101206.45;103523;1290;61399;-83
2023/05/06 09:49:56;;;;;;;;;;;;;;;19.71;46.16;101206.30;103439;1290;61397;-83
2023/05/06 09:52:27;;;;;;;;;;;;;;;19.71;46.12;101204.67;103678;1285;61486;-83
2023/05/06 09:54:53;;;;;;;;;;;;;;;19.71;46.22;101201.65;103460;1285;61315;-84
2023/05/06 09:57:19;;;;;;;;;;;;;;;19.71;46.17;101195.60;103490;1290;61403;-83
2023/05/06 09:59:48;;;;;;;;;;;;;;;19.70;46.20;101201.86;103468;1288;62363;-82
2023/05/06 10:02:14;;;;;;;;;;;;;;;19.70;46.07;101195.64;103561;1291;61419;-82
2023/05/06 10:04:40;;;;;;;;;;;;;;;19.70;46.07;101184.92;103526;1285;61806;-83
2023/05/06 10:07:16;;;;;;;;;;;;;;;19.70;46.18;101187.09;103413;1286;61481;-83
2023/05/06 10:09:42;;;;;;;;;;;;;;;19.70;46.05;101189.60;103508;1285;74495;-83
2023/05/06 10:12:08;;;;;;;;;;;;;;;19.70;46.13;101195.65;103456;1288;61495;-84
2023/05/06 10:14:37;;;;;;;;;;;;;;;19.70;46.08;101183.52;103578;1285;61433;-83
2023/05/06 10:17:07;;;;;;;;;;;;;;;19.70;45.99;101181.52;103610;1285;72291;-83
2023/05/06 10:19:33;;;;;;;;;;;;;;;19.70;46.13;101189.06;103572;1290;75409;-83
2023/05/06 10:22:07;;;;;;;;;;;;;;;19.70;45.83;101184.05;103579;1287;61402;-82
2023/05/06 10:24:35;;;;;;;;;;;;;;;19.70;45.97;101185.84;103787;1285;62525;-82
2023/05/06 10:27:02;;;;;;;;;;;;;;;19.69;45.89;101176.94;104141;1285;72732;-83
2023/05/06 10:29:27;;;;;;;;;;;;;;;19.70;46.06;101181.17;103891;1285;61398;-83
2023/05/06 10:31:56;;;;;;;;;;;;;;;19.70;46.00;101183.13;103779;1291;62662;-83
2023/05/06 10:34:22;;;;;;;;;;;;;;;19.70;45.95;101182.04;103815;1289;61378;-82
2023/05/06 10:36:49;;;;;;;;;;;;;;;19.71;46.04;101180.57;103553;1291;61964;-82
2023/05/06 10:39:15;;;;;;;;;;;;;;;19.71;45.97;101182.02;103638;1284;74552;-83
2023/05/06 10:41:42;;;;;;;;;;;;;;;19.71;46.04;101187.35;103637;1285;61872;-83
2023/05/06 10:44:10;;;;;;;;;;;;;;;19.72;46.02;101178.23;103675;1285;61295;-83
2023/05/06 10:46:56;;;;;;;;;;;;;;;19.71;45.88;101176.45;103661;1285;73386;-83
2023/05/06 10:49:22;;;;;;;;;;;;;;;19.72;45.96;101178.05;104182;1291;75426;-82
2023/05/06 10:51:48;;;;;;;;;;;;;;;19.72;45.88;101175.17;103833;1285;61363;-83
2023/05/06 10:54:19;;;;;;;;;;;;;;;19.72;45.95;101169.64;103720;1285;61379;-83
2023/05/06 10:56:51;;;;;;;;;;;;;;;19.72;45.99;101170.16;103656;1286;72495;-83
2023/05/06 10:59:20;;;;;;;;;;;;;;;19.72;45.94;101173.55;103649;1284;75501;-83
2023/05/06 11:01:50;;;;;;;;;;;;;;;19.72;45.89;101172.34;103515;1284;61413;-82
2023/05/06 11:04:17;;;;;;;;;;;;;;;19.72;45.90;101179.42;103621;1291;61262;-82
2023/05/06 11:06:52;;;;;;;;;;;;;;;19.72;45.74;101174.44;103690;1288;73037;-82
2023/05/06 11:09:19;;;;;;;;;;;;;;;19.72;45.94;101177.11;103546;1286;74528;-83
2023/05/06 11:11:46;;;;;;;;;;;;;;;19.72;46.00;101176.92;103776;1285;61299;-82
2023/05/06 11:14:23;;;;;;;;;;;;;;;19.72;45.90;101174.77;103636;1285;61547;-83
2023/05/06 11:16:49;;;;;;;;;;;;;;;19.73;45.91;101178.33;103551;1285;72688;-83
2023/05/06 11:19:27;;;;;;;;;;;;;;;19.72;45.87;101169.97;103570;1285;61361;-83
2023/05/06 11:21:54;;;;;;;;;;;;;;;19.73;45.77;101174.93;103494;1288;61352;-82
2023/05/06 11:24:25;;;;;;;;;;;;;;;19.73;45.80;101168.48;103626;1285;61467;-82
2023/05/06 11:26:51;;;;;;;;;;;;;;;19.73;45.77;101175.46;103617;1290;73368;-83
2023/05/06 11:29:19;;;;;;;;;;;;;;;19.73;45.67;101180.81;103575;1286;61453;-83
2023/05/06 11:31:51;;;;;;;;;;;;;;;19.73;45.76;101170.98;103601;1291;61705;-83
2023/05/06 11:34:22;;;;;;;;;;;;;;;19.73;45.72;101165.63;103561;1285;62433;-83
2023/05/06 11:37:01;;;;;;;;;;;;;;;19.74;45.78;101162.75;103694;1288;73523;-82
2023/05/06 11:39:30;;;;;;;;;;;;;;;19.74;45.86;101167.93;103584;1288;75583;-84
2023/05/06 11:41:59;;;;;;;;;;;;;;;19.74;45.73;101169.17;103560;1291;61659;-83
2023/05/06 11:44:30;;;;;;;;;;;;;;;19.74;45.70;101168.09;103587;1289;61392;-83
2023/05/06 11:47:04;;;;;;;;;;;;;;;19.74;45.74;101167.70;103736;1288;72459;-83
2023/05/06 11:49:37;;;;;;;;;;;;;;;19.75;45.69;101166.63;103536;1291;74442;-83
2023/05/06 11:52:03;;;;;;;;;;;;;;;19.75;45.77;101169.10;103692;1286;61214;-83
2023/05/06 11:54:32;;;;;;;;;;;;;;;19.75;45.67;101163.95;103486;1285;61561;-83
2023/05/06 11:56:57;;;;;;;;;;;;;;;19.75;45.74;101159.44;103572;1291;72562;-83
2023/05/06 11:59:36;;;;;;;;;;;;;;;19.75;45.76;101159.80;103553;1284;75466;-83
2023/05/06 12:02:02;;;;;;;;;;;;;;;19.75;45.76;101160.52;103418;1294;61324;-83
2023/05/06 12:04:38;;;;;;;;;;;;;;;19.76;45.70;101157.99;103497;1285;62439;-83
2023/05/06 12:07:05;;;;;;;;;;;;;;;19.75;45.58;101162.08;103623;1285;72297;-82
2023/05/06 12:09:33;;;;;;;;;;;;;;;19.76;45.71;101169.03;103659;1288;61301;-83
2023/05/06 12:12:06;;;;;;;;;;;;;;;19.76;45.71;101156.69;103609;1290;61378;-82
2023/05/06 12:14:34;;;;;;;;;;;;;;;19.77;45.68;101156.66;103577;1286;62190;-82
2023/05/06 12:17:02;;;;;;;;;;;;;;;19.77;45.75;101159.49;103632;1288;72279;-83
2023/05/06 12:19:31;;;;;;;;;;;;;;;19.78;45.70;101159.11;103519;1286;75452;-82
2023/05/06 12:22:17;;;;;;;;;;;;;;;19.78;45.65;101148.20;103435;1286;61375;-83
2023/05/06 12:24:42;;;;;;;;;;;;;;;19.78;45.59;101148.00;103945;1286;61382;-83
2023/05/06 12:27:08;;;;;;;;;;;;;;;19.79;45.49;101155.66;103538;1291;62512;-82
2023/05/06 12:29:34;;;;;;;;;;;;;;;19.80;45.51;101149.17;103366;1292;61370;-82
2023/05/06 12:32:07;;;;;;;;;;;;;;;19.80;45.40;101155.94;103546;1285;61494;-82
2023/05/06 12:34:40;;;;;;;;;;;;;;;19.80;45.45;101146.83;103569;1285;61310;-84